Time;durP1;ratioP1;P1;durP2;ratioP2;P2;SDS_P1;SDS_P2;PMS_P1;PMS_P2;Temp;Humidity;BMP_temperature;BMP_pressure;BME280_temperature;BME280_humidity;BME280_pressure;Samples;Min_cycle;Max_cycle;Signal;HPM_P1;HPM_P2
2021/08/14 00:01:56;;;;;;;15.68;8.07;;;;;;;28.42;100.00;96885.56;5012369;28;20498;-59
2021/08/14 00:04:25;;;;;;;16.85;8.30;;;;;;;28.37;100.00;96887.09;5012664;28;20077;-56
2021/08/14 00:06:53;;;;;;;13.05;8.02;;;;;;;27.85;100.00;96887.31;5002585;28;20077;-55
2021/08/14 00:09:22;;;;;;;15.77;8.18;;;;;;;28.76;100.00;96881.72;4990301;28;20477;-54
2021/08/14 00:11:50;;;;;;;13.07;8.15;;;;;;;28.27;100.00;96875.25;4980092;28;20062;-55
2021/08/14 00:14:18;;;;;;;12.80;7.88;;;;;;;28.53;100.00;96876.53;4985497;28;20069;-51
2021/08/14 00:16:49;;;;;;;15.48;7.78;;;;;;;28.81;100.00;96878.28;5001674;28;20078;-53
2021/08/14 00:19:17;;;;;;;12.35;7.93;;;;;;;28.91;100.00;96870.25;4997731;28;20062;-56
2021/08/14 00:21:46;;;;;;;12.95;7.72;;;;;;;28.59;100.00;96873.59;4997001;28;20072;-54
2021/08/14 00:24:14;;;;;;;14.75;8.45;;;;;;;28.70;100.00;96869.16;5002259;28;20085;-55
2021/08/14 00:26:43;;;;;;;12.52;8.20;;;;;;;27.84;100.00;96872.13;5011611;28;20065;-57
2021/08/14 00:29:11;;;;;;;15.93;8.40;;;;;;;27.62;100.00;96874.66;5004378;28;20056;-52
2021/08/14 00:31:40;;;;;;;15.27;8.38;;;;;;;28.20;100.00;96869.19;5005788;28;20473;-52
2021/08/14 00:34:10;;;;;;;13.80;8.07;;;;;;;28.53;100.00;96869.19;4991434;28;20059;-53
2021/08/14 00:36:39;;;;;;;14.77;8.65;;;;;;;28.48;100.00;96869.09;4993150;28;20062;-56
2021/08/14 00:39:07;;;;;;;17.48;8.68;;;;;;;27.97;100.00;96865.56;4995877;28;20065;-56
2021/08/14 00:41:35;;;;;;;14.43;8.43;;;;;;;28.37;100.00;96856.44;4997984;28;20074;-53
2021/08/14 00:44:04;;;;;;;16.58;8.52;;;;;;;28.58;100.00;96863.00;4988535;28;20078;-50
2021/08/14 00:46:33;;;;;;;19.00;8.82;;;;;;;28.37;100.00;96859.16;4987436;28;20074;-52
2021/08/14 00:49:03;;;;;;;15.00;8.57;;;;;;;28.24;100.00;96865.72;5011911;28;20045;-50
2021/08/14 00:51:33;;;;;;;14.70;8.80;;;;;;;27.98;100.00;96856.38;4989547;28;20082;-54
2021/08/14 00:54:01;;;;;;;11.75;8.75;;;;;;;28.22;100.00;96853.47;4995330;28;21641;-52
2021/08/14 00:56:30;;;;;;;14.85;8.38;;;;;;;28.39;100.00;96849.72;5005261;28;20550;-56
2021/08/14 00:58:59;;;;;;;15.77;8.43;;;;;;;27.90;100.00;96848.63;5006600;28;20069;-51
2021/08/14 01:01:28;;;;;;;11.48;8.48;;;;;;;27.97;100.00;96849.28;5011036;28;20705;-55
2021/08/14 01:03:57;;;;;;;16.08;8.13;;;;;;;28.34;100.00;96848.78;5007440;28;21148;-52
2021/08/14 01:06:26;;;;;;;14.05;8.82;;;;;;;28.27;100.00;96853.56;5016111;28;20459;-56
2021/08/14 01:08:57;;;;;;;15.00;8.65;;;;;;;27.52;100.00;96860.94;5007303;28;20112;-53
2021/08/14 01:11:26;;;;;;;12.80;8.50;;;;;;;27.32;100.00;96849.72;5009395;28;20470;-53
2021/08/14 01:13:56;;;;;;;17.25;8.95;;;;;;;28.12;100.00;96854.16;5008931;28;20090;-54
2021/08/14 01:16:25;;;;;;;;;;;;;;;28.53;100.00;96847.50;5010071;28;20078;-55
2021/08/14 01:18:53;;;;;;;14.63;9.20;;;;;;;28.08;100.00;96847.56;5009551;28;19979;-53
2021/08/14 01:21:23;;;;;;;17.48;9.02;;;;;;;27.64;100.00;96848.16;5012454;28;20073;-53
2021/08/14 01:23:54;;;;;;;16.30;8.60;;;;;;;27.33;100.00;96871.16;5011171;28;20065;-53
2021/08/14 01:26:24;;;;;;;15.77;8.98;;;;;;;26.91;100.00;96893.03;5007078;28;20074;-54
2021/08/14 01:28:54;;;;;;;12.60;8.05;;;;;;;26.53;100.00;96901.59;5006689;28;20081;-56
2021/08/14 01:31:23;;;;;;;15.25;9.07;;;;;;;26.79;100.00;96875.13;4982337;28;20066;-57
2021/08/14 01:33:52;;;;;;;16.73;9.00;;;;;;;27.36;100.00;96840.88;5006104;28;20066;-56
2021/08/14 01:36:20;;;;;;;14.88;9.80;;;;;;;26.80;100.00;96865.94;5016103;28;20068;-51
2021/08/14 01:38:50;;;;;;;15.80;9.45;;;;;;;26.46;100.00;96876.53;5011063;28;20056;-53
2021/08/14 01:41:19;;;;;;;15.15;9.20;;;;;;;26.62;100.00;96870.44;5009765;28;20077;-54
2021/08/14 01:43:57;;;;;;;13.82;9.07;;;;;;;27.06;100.00;96881.69;5005449;28;20079;-54
2021/08/14 01:46:26;;;;;;;18.02;10.18;;;;;;;26.54;100.00;96881.63;5007842;28;20092;-54
2021/08/14 01:48:55;;;;;;;16.58;10.43;;;;;;;26.85;100.00;96874.19;5014046;28;20070;-51
2021/08/14 01:51:24;;;;;;;16.88;10.68;;;;;;;27.02;100.00;96882.41;5010321;28;20135;-48
2021/08/14 01:53:54;;;;;;;18.30;10.23;;;;;;;27.02;100.00;96887.81;5012787;28;20456;-51
2021/08/14 01:56:24;;;;;;;15.98;10.32;;;;;;;27.09;100.00;96875.78;5009804;28;20527;-53
2021/08/14 01:58:52;;;;;;;17.13;10.30;;;;;;;27.25;100.00;96878.81;5011546;28;20097;-49
2021/08/14 02:01:23;;;;;;;19.42;10.40;;;;;;;27.10;100.00;96890.97;5014797;28;20511;-50
2021/08/14 02:03:51;;;;;;;17.25;10.63;;;;;;;27.16;100.00;96884.63;5007403;28;20078;-58
2021/08/14 02:06:22;;;;;;;14.93;10.07;;;;;;;26.87;100.00;96875.59;5007598;28;20088;-49
2021/08/14 02:08:54;;;;;;;14.35;9.70;;;;;;;27.03;100.00;96874.03;5006514;28;20049;-50
2021/08/14 02:11:25;;;;;;;14.07;10.43;;;;;;;26.52;100.00;96871.03;5006694;28;20073;-54
2021/08/14 02:13:54;;;;;;;15.15;10.48;;;;;;;27.19;100.00;96870.63;5014216;28;20073;-55
2021/08/14 02:16:25;;;;;;;16.40;10.73;;;;;;;27.54;100.00;96875.06;5007614;28;20089;-53
2021/08/14 02:18:54;;;;;;;17.77;11.20;;;;;;;27.27;100.00;96876.72;5008426;28;20547;-56
2021/08/14 02:21:22;;;;;;;14.70;10.35;;;;;;;27.73;100.00;96877.56;5007114;28;20065;-53
2021/08/14 02:23:51;;;;;;;16.48;10.40;;;;;;;27.82;100.00;96876.16;4995914;28;20061;-57
2021/08/14 02:26:19;;;;;;;12.45;9.70;;;;;;;27.82;100.00;96879.66;4988961;28;20096;-52
2021/08/14 02:28:48;;;;;;;16.50;10.00;;;;;;;27.66;100.00;96877.72;5006954;28;20475;-54
2021/08/14 02:31:17;;;;;;;16.10;10.00;;;;;;;27.79;100.00;96882.06;5007896;28;20081;-52
2021/08/14 02:33:47;;;;;;;16.65;10.18;;;;;;;27.04;100.00;96880.25;5013615;28;20065;-57
2021/08/14 02:36:16;;;;;;;16.75;10.88;;;;;;;26.51;100.00;96871.28;5006110;28;20077;-53
2021/08/14 02:38:45;;;;;;;16.23;10.65;;;;;;;27.52;100.00;96871.78;4994748;28;20062;-53
2021/08/14 02:41:13;;;;;;;17.05;10.30;;;;;;;27.68;100.00;96875.59;4987613;28;20084;-57
2021/08/14 02:43:42;;;;;;;15.88;11.70;;;;;;;26.78;100.00;96865.38;4989671;28;20093;-56
2021/08/14 02:46:10;;;;;;;18.15;11.63;;;;;;;26.59;100.00;96868.22;5002946;28;21482;-54
2021/08/14 02:48:38;;;;;;;13.23;11.00;;;;;;;27.41;100.00;96867.22;5007181;28;20084;-54
2021/08/14 02:51:08;;;;;;;15.85;10.88;;;;;;;27.59;100.00;96868.91;5009702;28;20061;-50
2021/08/14 02:53:37;;;;;;;14.50;10.88;;;;;;;27.82;100.00;96866.13;5010316;28;20077;-54
2021/08/14 02:56:06;;;;;;;14.38;10.82;;;;;;;27.90;100.00;96865.72;5004162;28;20566;-48
2021/08/14 02:58:34;;;;;;;15.75;11.23;;;;;;;27.25;100.00;96866.09;4991988;28;20549;-56
2021/08/14 03:01:03;;;;;;;15.65;11.10;;;;;;;26.98;100.00;96874.75;5007041;28;20441;-52
2021/08/14 03:03:31;;;;;;;19.85;11.10;;;;;;;27.75;100.00;96880.88;5006553;28;20524;-53
2021/08/14 03:06:00;;;;;;;15.60;10.95;;;;;;;27.49;100.00;96879.56;5004424;28;20089;-51
2021/08/14 03:08:30;;;;;;;17.70;10.13;;;;;;;27.18;100.00;96881.66;5005432;28;20666;-53
2021/08/14 03:10:58;;;;;;;14.25;9.30;;;;;;;27.02;100.00;96875.09;5009893;28;20496;-54
2021/08/14 03:13:26;;;;;;;15.05;10.30;;;;;;;26.86;100.00;96873.94;5007594;28;20485;-51
2021/08/14 03:15:55;;;;;;;14.77;9.75;;;;;;;27.22;100.00;96858.50;5005723;28;20038;-50
2021/08/14 03:18:24;;;;;;;15.35;11.38;;;;;;;25.93;100.00;96847.69;5023643;28;20061;-54
2021/08/14 03:20:52;;;;;;;16.70;10.98;;;;;;;27.03;100.00;96863.19;5007332;28;20064;-54
2021/08/14 03:23:20;;;;;;;17.02;10.75;;;;;;;26.79;100.00;96861.59;5012108;28;20080;-49
2021/08/14 03:25:50;;;;;;;15.50;10.90;;;;;;;27.13;100.00;96866.16;5009029;28;20477;-53
2021/08/14 03:28:19;;;;;;;16.02;10.30;;;;;;;27.41;100.00;96859.91;5007200;28;20069;-49
2021/08/14 03:30:47;;;;;;;17.60;10.93;;;;;;;27.57;100.00;96868.34;5003755;28;20111;-52
2021/08/14 03:33:16;;;;;;;12.68;9.98;;;;;;;26.71;100.00;96869.03;5009416;28;20082;-50
2021/08/14 03:35:44;;;;;;;15.20;10.27;;;;;;;26.75;100.00;96872.91;5013858;28;20046;-50
2021/08/14 03:38:13;;;;;;;12.25;9.95;;;;;;;27.06;100.00;96865.44;5000842;28;20073;-54
2021/08/14 03:40:41;;;;;;;17.85;10.32;;;;;;;26.69;100.00;96879.25;5006091;28;20081;-51
2021/08/14 03:43:11;;;;;;;14.25;10.43;;;;;;;27.14;100.00;96870.50;5010380;28;20034;-54
2021/08/14 03:45:40;;;;;;;15.55;10.80;;;;;;;27.12;100.00;96869.94;4993006;28;20069;-55
2021/08/14 03:48:08;;;;;;;15.68;10.32;;;;;;;27.47;100.00;96863.56;4983604;28;20559;-52
2021/08/14 03:50:37;;;;;;;12.80;9.73;;;;;;;27.04;100.00;96864.84;4989316;28;20065;-53
2021/08/14 03:53:05;;;;;;;16.75;10.13;;;;;;;26.93;100.00;96865.69;5012289;28;20452;-51
2021/08/14 03:55:34;;;;;;;13.70;10.57;;;;;;;27.45;100.00;96869.22;4987418;28;20089;-57
2021/08/14 03:58:02;;;;;;;14.38;9.90;;;;;;;26.90;100.00;96861.56;5001506;28;20080;-57
2021/08/14 04:00:32;;;;;;;16.65;10.57;;;;;;;27.27;100.00;96860.47;4993697;28;20457;-53
2021/08/14 04:03:00;;;;;;;16.95;10.48;;;;;;;27.36;100.00;96853.59;4991405;28;20547;-58
2021/08/14 04:05:29;;;;;;;14.45;10.25;;;;;;;26.22;100.00;96857.63;4993978;28;20061;-55
2021/08/14 04:07:57;;;;;;;12.23;10.00;;;;;;;26.40;100.00;96861.25;5007390;28;20594;-52
2021/08/14 04:10:26;;;;;;;15.18;10.18;;;;;;;26.99;100.00;96870.97;5010366;28;20504;-53
2021/08/14 04:12:54;;;;;;;16.88;10.25;;;;;;;26.60;100.00;96869.88;5005142;28;20061;-53
2021/08/14 04:15:23;;;;;;;19.70;11.23;;;;;;;26.43;100.00;96866.22;5003749;28;20464;-56
2021/08/14 04:17:53;;;;;;;15.98;10.18;;;;;;;26.79;100.00;96869.72;5006302;28;20068;-54
2021/08/14 04:20:21;;;;;;;14.85;10.40;;;;;;;26.72;100.00;96883.38;5003764;28;20069;-52
2021/08/14 04:22:50;;;;;;;15.07;10.88;;;;;;;26.78;100.00;96882.44;5005249;28;20088;-57
2021/08/14 04:25:19;;;;;;;15.73;11.15;;;;;;;26.27;100.00;96878.53;5005171;28;20484;-55
2021/08/14 04:27:47;;;;;;;16.42;11.27;;;;;;;26.87;100.00;96886.41;5009814;28;20072;-54
2021/08/14 04:30:16;;;;;;;16.80;10.35;;;;;;;26.80;100.00;96885.72;5003297;28;20072;-53
2021/08/14 04:32:45;;;;;;;17.55;10.23;;;;;;;27.01;100.00;96886.16;5002323;28;20073;-55
2021/08/14 04:35:16;;;;;;;14.38;10.15;;;;;;;26.69;100.00;96883.84;5006686;28;20543;-57
2021/08/14 04:37:45;;;;;;;12.60;9.70;;;;;;;26.88;100.00;96879.97;5005930;28;20065;-58
2021/08/14 04:40:15;;;;;;;16.00;11.18;;;;;;;27.20;100.00;96880.38;5019807;28;20077;-56
2021/08/14 04:42:43;;;;;;;15.98;10.68;;;;;;;26.77;100.00;96894.31;5015881;28;20078;-51
2021/08/14 04:45:13;;;;;;;16.67;10.57;;;;;;;26.07;100.00;96897.78;5021906;28;20084;-49
2021/08/14 04:47:42;;;;;;;17.00;11.00;;;;;;;26.77;100.00;96893.47;5011327;28;20073;-53
2021/08/14 04:50:11;;;;;;;15.52;10.57;;;;;;;26.67;100.00;96897.63;5007574;28;20066;-56
2021/08/14 04:52:41;;;;;;;14.87;10.63;;;;;;;27.49;100.00;96904.75;5019602;28;20077;-52
2021/08/14 04:55:10;;;;;;;17.00;11.10;;;;;;;27.13;100.00;96909.47;5006395;28;20072;-56
2021/08/14 04:57:39;;;;;;;16.00;11.02;;;;;;;26.81;100.00;96902.81;5008250;28;20069;-54
2021/08/14 05:00:08;;;;;;;14.20;10.27;;;;;;;28.09;100.00;96908.88;5012165;28;20468;-55
2021/08/14 05:02:37;;;;;;;18.38;10.52;;;;;;;28.52;100.00;96900.09;5013294;28;20064;-54
2021/08/14 05:05:07;;;;;;;18.50;10.05;;;;;;;28.28;100.00;96899.41;5009344;28;20053;-52
2021/08/14 05:07:35;;;;;;;16.17;10.10;;;;;;;28.49;100.00;96903.31;5020214;28;20081;-51
2021/08/14 05:10:06;;;;;;;13.55;10.02;;;;;;;28.89;100.00;96899.56;5018812;28;20065;-53
2021/08/14 05:12:35;;;;;;;15.30;10.50;;;;;;;28.76;100.00;96897.19;5009995;28;20452;-50
2021/08/14 05:15:04;;;;;;;12.88;10.60;;;;;;;28.83;100.00;96893.22;5005533;28;20058;-50
2021/08/14 05:17:32;;;;;;;13.80;10.07;;;;;;;28.61;100.00;96903.22;5013639;28;20080;-52
2021/08/14 05:20:01;;;;;;;17.80;10.27;;;;;;;28.57;100.00;96894.75;5013383;28;20550;-50
2021/08/14 05:22:29;;;;;;;18.10;10.60;;;;;;;28.28;100.00;96902.13;5009619;28;20145;-53
2021/08/14 05:24:58;;;;;;;16.90;10.70;;;;;;;28.07;100.00;96911.00;5020103;28;20066;-50
2021/08/14 05:27:27;;;;;;;16.05;10.57;;;;;;;27.33;100.00;96903.66;5012658;28;20065;-51
2021/08/14 05:29:56;;;;;;;12.77;10.20;;;;;;;28.69;100.00;96897.38;5011475;28;20080;-53
2021/08/14 05:32:24;;;;;;;13.70;10.40;;;;;;;28.87;100.00;96898.97;5005374;28;20084;-52
2021/08/14 05:34:53;;;;;;;16.50;10.63;;;;;;;28.62;100.00;96900.25;5008908;28;20085;-51
2021/08/14 05:37:21;;;;;;;25.58;20.25;;;;;;;28.88;100.00;96894.38;5009176;28;20120;-53
2021/08/14 05:39:50;;;;;;;17.70;12.73;;;;;;;30.03;100.00;96900.63;5006788;28;20066;-51
2021/08/14 05:42:18;;;;;;;13.63;10.45;;;;;;;30.29;96.91;96899.00;5008537;28;20069;-50
2021/08/14 05:44:48;;;;;;;18.35;9.82;;;;;;;29.97;100.00;96905.22;5011762;28;20073;-53
2021/08/14 05:47:16;;;;;;;16.77;10.52;;;;;;;29.53;100.00;96907.19;5012457;28;20056;-48
2021/08/14 05:49:45;;;;;;;16.63;10.52;;;;;;;30.25;99.60;96901.41;5007984;28;20088;-52
2021/08/14 05:52:13;;;;;;;15.15;9.85;;;;;;;29.76;100.00;96908.78;5015718;28;20076;-53
2021/08/14 05:54:42;;;;;;;14.55;10.10;;;;;;;30.02;100.00;96907.16;5011392;28;20105;-56
2021/08/14 05:57:11;;;;;;;14.50;10.10;;;;;;;29.81;100.00;96914.31;5011595;28;20060;-52
2021/08/14 05:59:39;;;;;;;15.00;10.32;;;;;;;29.04;100.00;96910.66;5005998;28;20424;-50
2021/08/14 06:02:09;;;;;;;15.05;10.38;;;;;;;29.37;100.00;96908.88;5017970;28;20065;-53
2021/08/14 06:04:38;;;;;;;13.57;10.07;;;;;;;30.72;97.45;96910.72;5006424;28;20089;-52
2021/08/14 06:07:06;;;;;;;15.60;10.70;;;;;;;30.30;100.00;96911.50;5006336;28;20078;-53
2021/08/14 06:09:35;;;;;;;17.95;10.55;;;;;;;30.26;100.00;96911.22;5012992;28;20073;-53
2021/08/14 06:12:04;;;;;;;14.73;10.27;;;;;;;30.47;100.00;96905.94;5018176;28;20463;-57
2021/08/14 06:14:33;;;;;;;14.57;10.32;;;;;;;29.52;100.00;96913.66;5010016;28;20112;-53
2021/08/14 06:17:01;;;;;;;18.23;9.73;;;;;;;31.28;89.57;96912.97;5014465;28;20096;-56
2021/08/14 06:19:31;;;;;;;14.70;9.50;;;;;;;30.41;94.82;96912.41;5018057;28;20068;-53
2021/08/14 06:22:00;;;;;;;15.88;9.60;;;;;;;31.17;87.61;96907.47;5006915;28;20097;-54
2021/08/14 06:24:28;;;;;;;17.95;9.57;;;;;;;30.59;91.13;96900.28;5009545;28;20077;-52
2021/08/14 06:26:57;;;;;;;16.48;9.88;;;;;;;30.39;95.49;96901.81;5019342;28;20528;-53
2021/08/14 06:29:25;;;;;;;13.02;8.90;;;;;;;29.70;99.33;96904.41;5000689;28;20074;-48
2021/08/14 06:31:54;;;;;;;14.98;9.63;;;;;;;30.00;100.00;96912.84;4986383;28;20465;-53
2021/08/14 06:34:22;;;;;;;14.60;9.77;;;;;;;29.73;100.00;96925.63;4993466;28;20470;-53
2021/08/14 06:36:52;;;;;;;14.30;9.30;;;;;;;30.35;92.74;96917.00;5006209;28;20556;-54
2021/08/14 06:39:20;;;;;;;24.85;17.92;;;;;;;29.61;100.00;96914.09;5013633;28;20069;-50
2021/08/14 06:41:48;;;;;;;14.57;9.80;;;;;;;30.42;93.07;96912.16;5002222;28;20061;-50
2021/08/14 06:44:17;;;;;;;14.77;10.50;;;;;;;30.03;98.09;96915.06;5016994;28;20457;-55
2021/08/14 06:46:45;;;;;;;15.38;10.27;;;;;;;30.45;97.32;96911.63;5018821;28;20091;-54
2021/08/14 06:49:14;;;;;;;15.88;9.95;;;;;;;30.04;97.98;96919.44;5009378;28;20077;-56
2021/08/14 06:51:42;;;;;;;14.30;9.50;;;;;;;30.65;94.59;96910.94;5010096;28;20088;-48
2021/08/14 06:54:12;;;;;;;13.88;10.18;;;;;;;30.64;89.37;96911.22;5013091;28;20080;-52
2021/08/14 06:56:40;;;;;;;15.48;10.57;;;;;;;29.90;100.00;96923.63;5018914;28;20065;-54
2021/08/14 06:59:09;;;;;;;15.68;10.50;;;;;;;29.77;100.00;96926.78;5006170;28;20061;-48
2021/08/14 07:01:37;;;;;;;14.95;10.88;;;;;;;30.43;91.98;96923.88;5013692;28;20472;-52
2021/08/14 07:04:06;;;;;;;14.35;11.05;;;;;;;30.43;92.62;96924.69;5010137;28;20073;-56
2021/08/14 07:06:35;;;;;;;18.23;11.55;;;;;;;30.00;99.75;96921.00;5008776;28;20069;-52
2021/08/14 07:09:03;;;;;;;19.83;10.50;;;;;;;30.69;87.14;96911.25;5011669;28;20548;-55
2021/08/14 07:11:34;;;;;;;14.48;10.77;;;;;;;31.38;81.35;96919.34;5012752;28;20513;-53
2021/08/14 07:14:02;;;;;;;13.38;9.18;;;;;;;31.66;68.99;96917.25;5010814;28;20085;-56
2021/08/14 07:16:31;;;;;;;11.77;8.98;;;;;;;31.95;65.12;96919.50;5015712;28;20096;-59
2021/08/14 07:18:59;;;;;;;14.00;9.27;;;;;;;32.14;62.96;96920.59;5008309;28;20061;-55
2021/08/14 07:21:28;;;;;;;12.90;9.02;;;;;;;31.30;67.25;96924.44;5021759;28;20085;-53
2021/08/14 07:23:57;;;;;;;13.85;9.40;;;;;;;31.56;72.88;96926.22;5013562;28;20065;-54
2021/08/14 07:26:25;;;;;;;12.32;9.38;;;;;;;30.33;74.33;96923.78;5008205;28;20081;-54
2021/08/14 07:28:55;;;;;;;13.73;9.75;;;;;;;31.15;69.75;96917.00;5013068;28;20092;-57
2021/08/14 07:31:23;;;;;;;12.57;9.13;;;;;;;32.26;64.77;96921.19;5011781;28;20113;-55
2021/08/14 07:33:52;;;;;;;14.82;10.35;;;;;;;32.35;60.97;96922.28;5007912;28;20065;-55
2021/08/14 07:36:20;;;;;;;11.00;9.18;;;;;;;32.88;57.96;96918.44;5013167;28;20065;-55
2021/08/14 07:38:49;;;;;;;13.32;10.48;;;;;;;33.12;55.31;96910.47;5014698;28;20479;-54
2021/08/14 07:41:17;;;;;;;10.65;9.55;;;;;;;32.52;61.45;96918.47;5009614;28;20068;-53
2021/08/14 07:43:46;;;;;;;13.70;10.43;;;;;;;32.82;59.24;96912.97;5012244;28;20088;-55
2021/08/14 07:46:16;;;;;;;14.10;9.35;;;;;;;32.53;61.04;96912.75;5015986;28;20081;-56
2021/08/14 07:48:44;;;;;;;13.52;10.20;;;;;;;32.70;63.54;96912.44;5004273;28;20100;-52
2021/08/14 07:51:12;;;;;;;21.45;10.55;;;;;;;33.02;57.01;96908.59;5011166;28;20072;-56
2021/08/14 07:53:41;;;;;;;16.50;11.07;;;;;;;33.48;58.05;96914.75;5015744;28;20053;-56
2021/08/14 07:56:09;;;;;;;23.40;13.65;;;;;;;32.74;57.23;96918.19;5019407;28;20068;-52
2021/08/14 07:58:38;;;;;;;15.38;10.65;;;;;;;33.06;56.18;96917.84;5010364;28;20444;-57
2021/08/14 08:01:06;;;;;;;13.63;10.57;;;;;;;32.72;57.17;96909.44;5006058;28;20080;-55
2021/08/14 08:03:36;;;;;;;13.48;9.98;;;;;;;33.53;54.06;96911.97;5011925;28;20076;-50
2021/08/14 08:06:05;;;;;;;13.10;10.15;;;;;;;33.00;58.86;96902.56;5014886;28;20068;-55
2021/08/14 08:08:34;;;;;;;13.27;10.75;;;;;;;33.43;57.71;96905.69;5006436;28;20058;-57
2021/08/14 08:11:03;;;;;;;14.15;9.90;;;;;;;33.79;53.47;96903.59;5016810;28;20092;-54
2021/08/14 08:13:31;;;;;;;13.45;10.35;;;;;;;32.75;56.32;96900.69;5022867;28;20089;-52
2021/08/14 08:16:00;;;;;;;13.20;10.13;;;;;;;33.25;54.60;96904.41;5010901;28;20065;-55
2021/08/14 08:18:28;;;;;;;19.52;9.80;;;;;;;32.98;58.70;96894.66;5017560;28;20476;-56
2021/08/14 08:20:58;;;;;;;11.75;9.23;;;;;;;33.27;53.24;96894.81;5018611;28;20073;-52
2021/08/14 08:23:27;;;;;;;13.77;9.40;;;;;;;32.85;56.11;96896.00;5008887;28;20073;-56
2021/08/14 08:25:55;;;;;;;13.45;9.63;;;;;;;33.47;49.28;96895.84;5012289;28;20077;-57
2021/08/14 08:28:24;;;;;;;15.75;9.68;;;;;;;33.89;49.73;96898.06;5023202;28;20069;-57
2021/08/14 08:30:53;;;;;;;13.07;10.40;;;;;;;33.01;50.82;96893.28;5010174;28;20073;-54
2021/08/14 08:33:21;;;;;;;11.65;9.60;;;;;;;32.88;53.27;96891.91;5014610;28;20076;-51
2021/08/14 08:35:50;;;;;;;12.88;9.43;;;;;;;33.40;52.35;96892.59;5007880;28;20528;-52
2021/08/14 08:38:20;;;;;;;11.90;9.15;;;;;;;33.25;51.96;96893.47;5023150;28;20076;-52
2021/08/14 08:40:49;;;;;;;14.27;9.55;;;;;;;32.56;53.79;96889.53;5008576;28;20092;-51
2021/08/14 08:43:17;;;;;;;15.80;9.40;;;;;;;32.48;54.81;96890.06;5016556;28;20382;-51
2021/08/14 08:45:46;;;;;;;11.27;8.90;;;;;;;33.50;50.81;96879.72;5018869;28;20084;-56
2021/08/14 08:48:18;;;;;;;9.95;8.90;;;;;;;32.84;51.83;96888.09;5014994;28;20069;-57
2021/08/14 08:50:47;;;;;;;13.57;8.55;;;;;;;34.28;46.17;96882.78;5007270;28;20069;-53
2021/08/14 08:53:16;;;;;;;9.60;8.52;;;;;;;33.83;49.35;96888.28;5012981;28;20069;-53
2021/08/14 08:55:47;;;;;;;12.57;8.82;;;;;;;33.55;49.89;96878.84;5022858;28;20148;-55
2021/08/14 08:58:16;;;;;;;10.15;8.35;;;;;;;34.23;48.12;96886.38;5017396;28;20080;-51
2021/08/14 09:00:45;;;;;;;14.82;9.07;;;;;;;33.81;48.05;96879.53;5010797;28;20069;-57
2021/08/14 09:03:15;;;;;;;10.43;8.55;;;;;;;32.73;54.45;96875.59;5015974;28;20508;-50
2021/08/14 09:05:47;;;;;;;13.32;8.52;;;;;;;32.79;55.53;96875.25;5012416;28;20069;-55
2021/08/14 09:08:16;;;;;;;13.43;8.90;;;;;;;32.92;53.44;96878.53;5013356;28;20061;-55
2021/08/14 09:10:46;;;;;;;8.77;7.88;;;;;;;34.22;46.61;96871.88;5014669;28;20072;-58
2021/08/14 09:13:17;;;;;;;13.70;8.75;;;;;;;33.58;49.72;96864.63;5009389;28;20084;-55
2021/08/14 09:15:46;;;;;;;10.95;8.60;;;;;;;34.50;46.75;96864.75;5023979;28;20095;-57
2021/08/14 09:18:33;;;;;;;8.80;7.68;;;;;;;34.02;45.54;96869.28;5006249;28;20056;-51
2021/08/14 09:21:01;;;;;;;10.50;8.38;;;;;;;34.70;42.55;96861.03;5013883;28;20540;-54
2021/08/14 09:23:29;;;;;;;10.43;8.88;;;;;;;34.73;45.67;96859.66;5020555;28;20562;-53
2021/08/14 09:26:04;;;;;;;8.82;7.82;;;;;;;34.80;44.36;96862.06;5006554;28;20105;-55
2021/08/14 09:28:34;;;;;;;12.07;8.77;;;;;;;34.78;44.93;96859.59;5016146;28;21387;-55
2021/08/14 09:31:04;;;;;;;11.63;8.95;;;;;;;34.92;43.09;96859.69;5016377;28;20111;-57
2021/08/14 09:33:35;;;;;;;9.95;8.55;;;;;;;34.04;46.33;96856.16;5018849;28;20081;-56
2021/08/14 09:36:05;;;;;;;10.43;8.38;;;;;;;34.58;43.66;96857.88;5011919;28;20073;-55
2021/08/14 09:38:42;;;;;;;11.82;8.02;;;;;;;34.88;42.84;96847.69;5011813;28;20073;-55
2021/08/14 09:41:13;;;;;;;10.63;7.57;;;;;;;34.89;45.54;96843.84;5020267;28;20520;-55
2021/08/14 09:43:43;;;;;;;12.07;8.60;;;;;;;34.54;48.00;96840.38;5015808;28;20085;-54
2021/08/14 09:46:11;;;;;;;14.57;8.55;;;;;;;34.15;51.45;96840.44;5002451;28;20432;-55
2021/08/14 09:48:40;;;;;;;13.00;8.60;;;;;;;34.06;49.88;96833.94;5026366;28;20058;-54
2021/08/14 09:51:27;;;;;;;11.27;8.70;;;;;;;33.03;48.11;96828.22;5018943;28;20057;-53
2021/08/14 09:53:56;;;;;;;13.60;8.48;;;;;;;34.08;45.81;96839.97;5009887;28;20076;-57
2021/08/14 09:56:27;;;;;;;9.25;7.95;;;;;;;34.19;43.69;96831.38;5008744;28;20074;-55
2021/08/14 09:58:55;;;;;;;11.32;8.48;;;;;;;34.46;42.82;96825.38;4987903;28;20093;-55
2021/08/14 10:01:24;;;;;;;11.57;8.73;;;;;;;35.42;41.61;96827.31;5017478;28;20081;-56
2021/08/14 10:03:53;;;;;;;11.52;8.38;;;;;;;35.58;39.51;96823.28;5010578;28;20076;-56
2021/08/14 10:06:22;;;;;;;11.63;8.60;;;;;;;34.36;43.15;96825.47;5015632;28;20061;-58
2021/08/14 10:08:51;;;;;;;11.40;8.90;;;;;;;34.34;44.28;96819.44;5016426;28;20069;-53
2021/08/14 10:11:20;;;;;;;11.85;8.48;;;;;;;35.54;40.64;96813.16;5012453;28;20061;-57
2021/08/14 10:13:50;;;;;;;11.15;8.40;;;;;;;35.73;40.55;96816.72;5011300;28;20084;-54
2021/08/14 10:16:19;;;;;;;11.20;8.30;;;;;;;34.43;44.93;96811.44;5016842;28;20077;-57
2021/08/14 10:18:52;;;;;;;10.65;8.20;;;;;;;35.79;41.68;96810.06;5010930;28;20520;-55
2021/08/14 10:21:22;;;;;;;12.30;8.43;;;;;;;35.94;41.31;96809.00;5013162;28;20077;-57
2021/08/14 10:23:52;;;;;;;;;;;;;;;36.40;39.46;96805.47;5004792;28;20058;-57
2021/08/14 10:26:21;;;;;;;11.43;8.60;;;;;;;36.64;37.56;96799.03;5008933;28;19933;-60
2021/08/14 10:28:52;;;;;;;14.48;8.38;;;;;;;36.98;38.69;96804.94;5005084;28;20038;-60
2021/08/14 10:31:46;;;;;;;12.88;8.50;;;;;;;36.47;39.41;96799.56;5009151;28;20078;-60
2021/08/14 10:34:33;;;;;;;11.05;8.15;;;;;;;36.56;38.56;96798.59;5004557;28;20066;-57
2021/08/14 10:37:03;;;;;;;11.95;8.30;;;;;;;36.22;40.25;96800.88;5022210;28;20095;-58
2021/08/14 10:39:33;;;;;;;12.82;8.50;;;;;;;35.36;42.17;96790.09;5010169;28;20406;-57
2021/08/14 10:42:03;;;;;;;9.48;8.43;;;;;;;35.91;40.35;96795.84;5013806;28;20058;-59
2021/08/14 10:44:46;;;;;;;12.02;8.45;;;;;;;35.72;41.09;96790.41;5003008;28;20050;-55
2021/08/14 10:47:41;;;;;;;9.63;7.45;;;;;;;36.79;38.18;96774.81;4992158;28;20050;-59
2021/08/14 10:50:38;;;;;;;12.20;8.18;;;;;;;36.68;40.26;96778.06;5004642;28;20143;-54
2021/08/14 10:53:15;;;;;;;14.18;8.48;;;;;;;36.18;38.87;96777.88;5004630;28;20068;-56
2021/08/14 10:55:50;;;;;;;10.30;8.43;;;;;;;36.94;38.56;96764.59;5011783;28;20073;-59
2021/08/14 10:58:22;;;;;;;9.75;8.30;;;;;;;36.66;38.74;96763.81;5014478;28;20491;-53
2021/08/14 11:00:54;;;;;;;10.13;8.02;;;;;;;35.89;38.93;96771.47;5014741;28;20056;-56
2021/08/14 11:03:32;;;;;;;11.43;8.20;;;;;;;36.62;38.73;96765.56;5010838;28;20443;-53
2021/08/14 11:06:28;;;;;;;11.13;8.20;;;;;;;36.23;39.57;96755.78;5008982;28;20073;-56
2021/08/14 11:09:33;;;;;;;10.23;8.23;;;;;;;36.65;39.22;96757.50;5012455;28;20057;-57
2021/08/14 11:12:03;;;;;;;12.90;8.40;;;;;;;36.20;39.34;96759.16;5007665;28;20072;-55
2021/08/14 11:14:40;;;;;;;10.55;8.13;;;;;;;36.32;39.40;96756.72;5026412;28;20076;-54
2021/08/14 11:17:10;;;;;;;9.88;8.07;;;;;;;36.90;38.74;96756.16;5009126;28;20045;-57
2021/08/14 11:19:50;;;;;;;13.30;8.20;;;;;;;36.86;39.46;96752.41;5012859;28;20169;-54
2021/08/14 11:22:32;;;;;;;9.52;7.57;;;;;;;36.52;38.04;96755.56;5010031;28;20327;-52
2021/08/14 11:25:04;;;;;;;9.07;7.75;;;;;;;36.32;38.92;96749.31;5012134;28;20536;-56
2021/08/14 11:27:35;;;;;;;11.60;8.50;;;;;;;36.67;37.62;96747.00;5004618;28;20311;-56
2021/08/14 11:30:06;;;;;;;11.98;8.10;;;;;;;36.33;38.21;96747.38;5008297;28;20053;-56
2021/08/14 11:32:37;;;;;;;12.85;9.05;;;;;;;36.14;40.65;96739.22;5013559;28;20073;-57